sensor_id;sensor_type;location;lat;lon;timestamp;pressure;altitude;pressure_sealevel;temperature
48003;BMP280;33768;48.578;11.574;2024-02-23T00:01:34;94426.22;;;8.96
48003;BMP280;33768;48.578;11.574;2024-02-23T00:04:39;94433.66;;;8.95
48003;BMP280;33768;48.578;11.574;2024-02-23T00:07:43;94423.72;;;8.90
48003;BMP280;33768;48.578;11.574;2024-02-23T00:10:47;94430.13;;;8.85
48003;BMP280;33768;48.578;11.574;2024-02-23T00:13:51;94423.97;;;8.85
48003;BMP280;33768;48.578;11.574;2024-02-23T00:16:56;94436.13;;;8.84
48003;BMP280;33768;48.578;11.574;2024-02-23T00:20:02;94451.72;;;8.83
48003;BMP280;33768;48.578;11.574;2024-02-23T00:23:06;94469.16;;;8.80
48003;BMP280;33768;48.578;11.574;2024-02-23T00:26:10;94488.75;;;8.79
48003;BMP280;33768;48.578;11.574;2024-02-23T00:29:14;94480.44;;;8.77
48003;BMP280;33768;48.578;11.574;2024-02-23T00:32:19;94490.28;;;8.73
48003;BMP280;33768;48.578;11.574;2024-02-23T00:35:23;94498.44;;;8.73
48003;BMP280;33768;48.578;11.574;2024-02-23T00:38:28;94514.03;;;8.72
48003;BMP280;33768;48.578;11.574;2024-02-23T00:41:36;94513.69;;;8.68
48003;BMP280;33768;48.578;11.574;2024-02-23T00:44:40;94517.19;;;8.61
48003;BMP280;33768;48.578;11.574;2024-02-23T00:47:45;94528.47;;;8.58
48003;BMP280;33768;48.578;11.574;2024-02-23T00:50:51;94534.13;;;8.52
48003;BMP280;33768;48.578;11.574;2024-02-23T00:53:55;94534.13;;;8.52
48003;BMP280;33768;48.578;11.574;2024-02-23T00:57:00;94552.25;;;8.50
48003;BMP280;33768;48.578;11.574;2024-02-23T01:00:04;94548.09;;;8.49
48003;BMP280;33768;48.578;11.574;2024-02-23T01:03:13;94533.47;;;8.44
48003;BMP280;33768;48.578;11.574;2024-02-23T01:06:17;94546.72;;;8.41
48003;BMP280;33768;48.578;11.574;2024-02-23T01:09:21;94551.81;;;8.37
48003;BMP280;33768;48.578;11.574;2024-02-23T01:12:25;94562.53;;;8.35
48003;BMP280;33768;48.578;11.574;2024-02-23T01:15:30;94568.91;;;8.30
48003;BMP280;33768;48.578;11.574;2024-02-23T01:18:34;94572.38;;;8.23
48003;BMP280;33768;48.578;11.574;2024-02-23T01:21:38;94565.31;;;8.20
48003;BMP280;33768;48.578;11.574;2024-02-23T01:24:43;94564.75;;;8.21
48003;BMP280;33768;48.578;11.574;2024-02-23T01:27:47;94584.38;;;8.12
48003;BMP280;33768;48.578;11.574;2024-02-23T01:30:52;94577.88;;;8.08
48003;BMP280;33768;48.578;11.574;2024-02-23T01:33:56;94587.66;;;8.04
48003;BMP280;33768;48.578;11.574;2024-02-23T01:37:00;94596.00;;;7.98
48003;BMP280;33768;48.578;11.574;2024-02-23T01:40:05;94590.78;;;7.93
48003;BMP280;33768;48.578;11.574;2024-02-23T01:43:10;94604.94;;;7.91
48003;BMP280;33768;48.578;11.574;2024-02-23T01:46:14;94602.41;;;7.86
48003;BMP280;33768;48.578;11.574;2024-02-23T01:49:22;94599.72;;;7.78
48003;BMP280;33768;48.578;11.574;2024-02-23T01:52:34;94608.03;;;7.80
48003;BMP280;33768;48.578;11.574;2024-02-23T01:55:42;94601.00;;;7.78
48003;BMP280;33768;48.578;11.574;2024-02-23T01:58:47;94628.16;;;7.78
48003;BMP280;33768;48.578;11.574;2024-02-23T02:01:51;94651.88;;;7.70
48003;BMP280;33768;48.578;11.574;2024-02-23T02:04:56;94660.28;;;7.13
48003;BMP280;33768;48.578;11.574;2024-02-23T02:08:00;94676.34;;;6.66
48003;BMP280;33768;48.578;11.574;2024-02-23T02:11:04;94674.69;;;6.41
48003;BMP280;33768;48.578;11.574;2024-02-23T02:14:08;94667.59;;;6.31
48003;BMP280;33768;48.578;11.574;2024-02-23T02:17:14;94671.66;;;6.10
48003;BMP280;33768;48.578;11.574;2024-02-23T02:20:23;94674.31;;;5.88
48003;BMP280;33768;48.578;11.574;2024-02-23T02:23:28;94688.88;;;5.77
48003;BMP280;33768;48.578;11.574;2024-02-23T02:26:32;94685.34;;;5.62
48003;BMP280;33768;48.578;11.574;2024-02-23T02:29:37;94697.16;;;5.52
48003;BMP280;33768;48.578;11.574;2024-02-23T02:32:41;94708.31;;;5.48
48003;BMP280;33768;48.578;11.574;2024-02-23T02:35:45;94711.69;;;5.41
48003;BMP280;33768;48.578;11.574;2024-02-23T02:38:50;94713.69;;;5.41
48003;BMP280;33768;48.578;11.574;2024-02-23T02:41:55;94709.88;;;5.36
48003;BMP280;33768;48.578;11.574;2024-02-23T02:45:00;94702.97;;;5.28
48003;BMP280;33768;48.578;11.574;2024-02-23T02:48:04;94694.13;;;5.28
48003;BMP280;33768;48.578;11.574;2024-02-23T02:51:09;94688.56;;;5.33
48003;BMP280;33768;48.578;11.574;2024-02-23T02:54:18;94698.66;;;5.32
48003;BMP280;33768;48.578;11.574;2024-02-23T02:57:23;94712.19;;;5.32
48003;BMP280;33768;48.578;11.574;2024-02-23T03:00:27;94702.81;;;5.33
48003;BMP280;33768;48.578;11.574;2024-02-23T03:03:32;94706.38;;;5.28
48003;BMP280;33768;48.578;11.574;2024-02-23T03:06:36;94720.97;;;5.26
48003;BMP280;33768;48.578;11.574;2024-02-23T03:09:40;94725.53;;;5.30
48003;BMP280;33768;48.578;11.574;2024-02-23T03:12:45;94733.84;;;5.32
48003;BMP280;33768;48.578;11.574;2024-02-23T03:15:49;94730.94;;;5.30
48003;BMP280;33768;48.578;11.574;2024-02-23T03:18:54;94736.75;;;5.34
48003;BMP280;33768;48.578;11.574;2024-02-23T03:21:59;94734.16;;;5.29
48003;BMP280;33768;48.578;11.574;2024-02-23T03:25:05;94739.03;;;5.30
48003;BMP280;33768;48.578;11.574;2024-02-23T03:28:12;94733.97;;;5.27
48003;BMP280;33768;48.578;11.574;2024-02-23T03:31:16;94722.41;;;5.27
48003;BMP280;33768;48.578;11.574;2024-02-23T03:34:20;94722.63;;;5.28
48003;BMP280;33768;48.578;11.574;2024-02-23T03:37:25;94719.25;;;5.35
48003;BMP280;33768;48.578;11.574;2024-02-23T03:40:30;94721.94;;;5.35
48003;BMP280;33768;48.578;11.574;2024-02-23T03:43:34;94729.34;;;5.35
48003;BMP280;33768;48.578;11.574;2024-02-23T03:46:38;94734.41;;;5.38
48003;BMP280;33768;48.578;11.574;2024-02-23T03:49:43;94730.25;;;5.37
48003;BMP280;33768;48.578;11.574;2024-02-23T03:52:53;94724.66;;;5.35
48003;BMP280;33768;48.578;11.574;2024-02-23T03:55:57;94719.03;;;5.33
48003;BMP280;33768;48.578;11.574;2024-02-23T03:59:02;94723.38;;;5.36
48003;BMP280;33768;48.578;11.574;2024-02-23T04:02:06;94710.22;;;5.33
48003;BMP280;33768;48.578;11.574;2024-02-23T04:05:10;94709.28;;;5.30
48003;BMP280;33768;48.578;11.574;2024-02-23T04:08:14;94710.56;;;5.29
48003;BMP280;33768;48.578;11.574;2024-02-23T04:11:18;94709.81;;;5.29
48003;BMP280;33768;48.578;11.574;2024-02-23T04:14:23;94722.28;;;5.32
48003;BMP280;33768;48.578;11.574;2024-02-23T04:17:27;94725.19;;;5.34
48003;BMP280;33768;48.578;11.574;2024-02-23T04:20:31;94725.53;;;5.30
48003;BMP280;33768;48.578;11.574;2024-02-23T04:23:36;94728.78;;;5.36
48003;BMP280;33768;48.578;11.574;2024-02-23T04:26:41;94726.63;;;5.35
48003;BMP280;33768;48.578;11.574;2024-02-23T04:29:45;94734.22;;;5.36
48003;BMP280;33768;48.578;11.574;2024-02-23T04:32:49;94742.16;;;5.34
48003;BMP280;33768;48.578;11.574;2024-02-23T04:35:53;94726.97;;;5.31
48003;BMP280;33768;48.578;11.574;2024-02-23T04:38:58;94722.63;;;5.28
48003;BMP280;33768;48.578;11.574;2024-02-23T04:42:02;94735.06;;;5.31
48003;BMP280;33768;48.578;11.574;2024-02-23T04:45:07;94734.16;;;5.29
48003;BMP280;33768;48.578;11.574;2024-02-23T04:48:12;94732.38;;;5.31
48003;BMP280;33768;48.578;11.574;2024-02-23T04:51:16;94723.34;;;5.29
48003;BMP280;33768;48.578;11.574;2024-02-23T04:54:20;94726.97;;;5.31
48003;BMP280;33768;48.578;11.574;2024-02-23T04:57:25;94733.13;;;5.32
48003;BMP280;33768;48.578;11.574;2024-02-23T05:00:29;94737.78;;;5.31
48003;BMP280;33768;48.578;11.574;2024-02-23T05:03:46;94739.03;;;5.30
48003;BMP280;33768;48.578;11.574;2024-02-23T05:06:50;94738.53;;;5.32
48003;BMP280;33768;48.578;11.574;2024-02-23T05:09:54;94723.88;;;5.28
48003;BMP280;33768;48.578;11.574;2024-02-23T05:12:59;94718.66;;;5.29
48003;BMP280;33768;48.578;11.574;2024-02-23T05:16:03;94717.75;;;5.27
48003;BMP280;33768;48.578;11.574;2024-02-23T05:19:07;94715.34;;;5.24
48003;BMP280;33768;48.578;11.574;2024-02-23T05:22:12;94693.56;;;5.22
48003;BMP280;33768;48.578;11.574;2024-02-23T05:25:17;94708.00;;;5.24
48003;BMP280;33768;48.578;11.574;2024-02-23T05:28:21;94715.34;;;5.24
48003;BMP280;33768;48.578;11.574;2024-02-23T05:31:45;94723.09;;;5.20
48003;BMP280;33768;48.578;11.574;2024-02-23T05:34:50;94731.41;;;5.22
48003;BMP280;33768;48.578;11.574;2024-02-23T05:37:55;94740.97;;;5.23
48003;BMP280;33768;48.578;11.574;2024-02-23T05:40:59;94732.66;;;5.21
48003;BMP280;33768;48.578;11.574;2024-02-23T05:44:04;94738.78;;;5.21
48003;BMP280;33768;48.578;11.574;2024-02-23T05:47:10;94731.22;;;5.20
48003;BMP280;33768;48.578;11.574;2024-02-23T05:50:15;94743.47;;;5.21
48003;BMP280;33768;48.578;11.574;2024-02-23T05:53:19;94759.69;;;5.21
48003;BMP280;33768;48.578;11.574;2024-02-23T05:56:24;94762.59;;;5.23
48003;BMP280;33768;48.578;11.574;2024-02-23T05:59:28;94777.78;;;5.26
48003;BMP280;33768;48.578;11.574;2024-02-23T06:02:33;94781.75;;;5.25
48003;BMP280;33768;48.578;11.574;2024-02-23T06:05:38;94790.56;;;5.25
48003;BMP280;33768;48.578;11.574;2024-02-23T06:08:44;94797.41;;;5.26
48003;BMP280;33768;48.578;11.574;2024-02-23T06:11:48;94800.84;;;5.27
48003;BMP280;33768;48.578;11.574;2024-02-23T06:14:54;94794.59;;;5.31
48003;BMP280;33768;48.578;11.574;2024-02-23T06:18:22;94793.56;;;5.34
48003;BMP280;33768;48.578;11.574;2024-02-23T06:21:32;94804.53;;;5.36
48003;BMP280;33768;48.578;11.574;2024-02-23T06:24:38;94803.50;;;5.39
48003;BMP280;33768;48.578;11.574;2024-02-23T06:27:43;94815.56;;;5.38
48003;BMP280;33768;48.578;11.574;2024-02-23T06:30:47;94820.78;;;5.36
48003;BMP280;33768;48.578;11.574;2024-02-23T06:33:51;94819.53;;;5.37
48003;BMP280;33768;48.578;11.574;2024-02-23T06:36:56;94823.38;;;5.42
48003;BMP280;33768;48.578;11.574;2024-02-23T06:40:26;94835.13;;;5.44
48003;BMP280;33768;48.578;11.574;2024-02-23T06:43:30;94838.41;;;5.50
48003;BMP280;33768;48.578;11.574;2024-02-23T06:46:34;94823.81;;;5.53
48003;BMP280;33768;48.578;11.574;2024-02-23T06:49:42;94829.63;;;5.57
48003;BMP280;33768;48.578;11.574;2024-02-23T06:52:49;94820.66;;;5.62
48003;BMP280;33768;48.578;11.574;2024-02-23T06:55:53;94831.84;;;5.66
48003;BMP280;33768;48.578;11.574;2024-02-23T06:58:58;94826.84;;;5.70
48003;BMP280;33768;48.578;11.574;2024-02-23T07:02:03;94825.25;;;5.74
48003;BMP280;33768;48.578;11.574;2024-02-23T07:05:34;94809.38;;;5.71
48003;BMP280;33768;48.578;11.574;2024-02-23T07:08:46;94811.97;;;5.63
48003;BMP280;33768;48.578;11.574;2024-02-23T07:11:51;94808.16;;;5.59
48003;BMP280;33768;48.578;11.574;2024-02-23T07:14:55;94809.81;;;5.62
48003;BMP280;33768;48.578;11.574;2024-02-23T07:18:00;94822.81;;;5.63
48003;BMP280;33768;48.578;11.574;2024-02-23T07:21:04;94824.47;;;5.66
48003;BMP280;33768;48.578;11.574;2024-02-23T07:24:09;94830.69;;;5.74
48003;BMP280;33768;48.578;11.574;2024-02-23T07:27:13;94830.88;;;5.76
48003;BMP280;33768;48.578;11.574;2024-02-23T07:30:17;94835.78;;;5.78
48003;BMP280;33768;48.578;11.574;2024-02-23T07:33:22;94842.09;;;5.80
48003;BMP280;33768;48.578;11.574;2024-02-23T07:36:27;94849.69;;;5.82
48003;BMP280;33768;48.578;11.574;2024-02-23T07:39:38;94852.38;;;5.82
48003;BMP280;33768;48.578;11.574;2024-02-23T07:42:46;94867.78;;;5.87
48003;BMP280;33768;48.578;11.574;2024-02-23T07:45:51;94854.78;;;5.85
48003;BMP280;33768;48.578;11.574;2024-02-23T07:49:07;94845.59;;;5.88
48003;BMP280;33768;48.578;11.574;2024-02-23T07:52:18;94847.03;;;5.89
48003;BMP280;33768;48.578;11.574;2024-02-23T07:55:26;94858.06;;;5.91
48003;BMP280;33768;48.578;11.574;2024-02-23T07:58:48;94859.84;;;5.89
48003;BMP280;33768;48.578;11.574;2024-02-23T08:02:22;94853.00;;;5.88
48003;BMP280;33768;48.578;11.574;2024-02-23T08:05:36;94842.47;;;5.84
48003;BMP280;33768;48.578;11.574;2024-02-23T08:08:43;94844.66;;;5.86
48003;BMP280;33768;48.578;11.574;2024-02-23T08:11:47;94843.47;;;5.94
48003;BMP280;33768;48.578;11.574;2024-02-23T08:14:51;94840.44;;;5.97
48003;BMP280;33768;48.578;11.574;2024-02-23T08:17:57;94834.16;;;6.02
48003;BMP280;33768;48.578;11.574;2024-02-23T08:21:02;94817.91;;;6.02
48003;BMP280;33768;48.578;11.574;2024-02-23T08:24:07;94815.19;;;6.02
48003;BMP280;33768;48.578;11.574;2024-02-23T08:27:13;94804.88;;;6.01
48003;BMP280;33768;48.578;11.574;2024-02-23T08:30:17;94813.19;;;6.03
48003;BMP280;33768;48.578;11.574;2024-02-23T08:33:24;94826.75;;;6.03
48003;BMP280;33768;48.578;11.574;2024-02-23T08:36:29;94844.88;;;6.15
48003;BMP280;33768;48.578;11.574;2024-02-23T08:39:33;94839.50;;;6.23
48003;BMP280;33768;48.578;11.574;2024-02-23T08:42:38;94830.50;;;6.27
48003;BMP280;33768;48.578;11.574;2024-02-23T08:45:42;94827.25;;;6.29
48003;BMP280;33768;48.578;11.574;2024-02-23T08:48:47;94830.16;;;6.31
48003;BMP280;33768;48.578;11.574;2024-02-23T08:51:53;94836.72;;;6.43
48003;BMP280;33768;48.578;11.574;2024-02-23T08:54:57;94851.78;;;6.58
48003;BMP280;33768;48.578;11.574;2024-02-23T08:58:07;94864.28;;;6.61
48003;BMP280;33768;48.578;11.574;2024-02-23T09:01:13;94856.84;;;6.62
48003;BMP280;33768;48.578;11.574;2024-02-23T09:04:17;94866.63;;;6.65
48003;BMP280;33768;48.578;11.574;2024-02-23T09:07:22;94864.28;;;6.61
48003;BMP280;33768;48.578;11.574;2024-02-23T09:10:26;94863.88;;;6.57
48003;BMP280;33768;48.578;11.574;2024-02-23T09:13:30;94882.34;;;6.59
48003;BMP280;33768;48.578;11.574;2024-02-23T09:16:34;94891.72;;;6.58
48003;BMP280;33768;48.578;11.574;2024-02-23T09:19:38;94905.81;;;6.56
48003;BMP280;33768;48.578;11.574;2024-02-23T09:22:43;94911.94;;;6.57
48003;BMP280;33768;48.578;11.574;2024-02-23T09:25:47;94892.44;;;6.58
48003;BMP280;33768;48.578;11.574;2024-02-23T09:28:51;94909.44;;;6.59
48003;BMP280;33768;48.578;11.574;2024-02-23T09:31:55;94902.19;;;6.54
48003;BMP280;33768;48.578;11.574;2024-02-23T09:35:00;94917.72;;;6.54
48003;BMP280;33768;48.578;11.574;2024-02-23T09:38:04;94917.38;;;6.57
48003;BMP280;33768;48.578;11.574;2024-02-23T09:41:13;94906.38;;;6.62
48003;BMP280;33768;48.578;11.574;2024-02-23T09:44:22;94899.72;;;6.63
48003;BMP280;33768;48.578;11.574;2024-02-23T09:47:27;94897.00;;;6.63
48003;BMP280;33768;48.578;11.574;2024-02-23T09:50:32;94885.44;;;6.63
48003;BMP280;33768;48.578;11.574;2024-02-23T09:53:41;94889.97;;;6.68
48003;BMP280;33768;48.578;11.574;2024-02-23T09:56:47;94893.59;;;6.70
48003;BMP280;33768;48.578;11.574;2024-02-23T09:59:52;94901.22;;;6.79
48003;BMP280;33768;48.578;11.574;2024-02-23T10:02:57;94902.34;;;6.84
48003;BMP280;33768;48.578;11.574;2024-02-23T10:06:02;94901.78;;;6.85
48003;BMP280;33768;48.578;11.574;2024-02-23T10:09:06;94904.50;;;6.85
48003;BMP280;33768;48.578;11.574;2024-02-23T10:12:11;94904.38;;;6.90
48003;BMP280;33768;48.578;11.574;2024-02-23T10:15:15;94897.31;;;6.95
48003;BMP280;33768;48.578;11.574;2024-02-23T10:18:19;94889.00;;;6.93
48003;BMP280;33768;48.578;11.574;2024-02-23T10:21:23;94888.47;;;6.94
48003;BMP280;33768;48.578;11.574;2024-02-23T10:24:29;94886.09;;;6.91
48003;BMP280;33768;48.578;11.574;2024-02-23T10:27:33;94885.03;;;6.94
48003;BMP280;33768;48.578;11.574;2024-02-23T10:30:38;94901.28;;;6.94
48003;BMP280;33768;48.578;11.574;2024-02-23T10:33:44;94904.56;;;7.00
48003;BMP280;33768;48.578;11.574;2024-02-23T10:36:48;94902.06;;;7.09
48003;BMP280;33768;48.578;11.574;2024-02-23T10:39:57;94891.97;;;7.17
48003;BMP280;33768;48.578;11.574;2024-02-23T10:43:02;94890.88;;;7.20
48003;BMP280;33768;48.578;11.574;2024-02-23T10:46:07;94895.06;;;7.21
48003;BMP280;33768;48.578;11.574;2024-02-23T10:49:17;94889.50;;;7.41
48003;BMP280;33768;48.578;11.574;2024-02-23T10:52:24;94886.06;;;7.48
48003;BMP280;33768;48.578;11.574;2024-02-23T10:55:32;94883.38;;;7.63
48003;BMP280;33768;48.578;11.574;2024-02-23T10:58:36;94894.63;;;7.67
48003;BMP280;33768;48.578;11.574;2024-02-23T11:01:40;94906.75;;;7.73
48003;BMP280;33768;48.578;11.574;2024-02-23T11:04:47;94897.91;;;7.87
48003;BMP280;33768;48.578;11.574;2024-02-23T11:07:57;94912.38;;;7.90
48003;BMP280;33768;48.578;11.574;2024-02-23T11:11:09;94903.69;;;7.99
48003;BMP280;33768;48.578;11.574;2024-02-23T11:14:13;94891.38;;;7.90
48003;BMP280;33768;48.578;11.574;2024-02-23T11:17:18;94897.72;;;7.93
48003;BMP280;33768;48.578;11.574;2024-02-23T11:20:34;94883.41;;;7.92
48003;BMP280;33768;48.578;11.574;2024-02-23T11:23:42;94893.38;;;7.90
48003;BMP280;33768;48.578;11.574;2024-02-23T11:26:47;94889.22;;;7.89
48003;BMP280;33768;48.578;11.574;2024-02-23T11:30:04;94887.38;;;7.69
48003;BMP280;33768;48.578;11.574;2024-02-23T11:33:12;94884.28;;;7.58
48003;BMP280;33768;48.578;11.574;2024-02-23T11:36:23;94879.94;;;7.55
48003;BMP280;33768;48.578;11.574;2024-02-23T11:39:29;94883.56;;;7.65
48003;BMP280;33768;48.578;11.574;2024-02-23T11:42:34;94890.09;;;7.62
48003;BMP280;33768;48.578;11.574;2024-02-23T11:46:19;94894.97;;;7.71
48003;BMP280;33768;48.578;11.574;2024-02-23T11:49:28;94880.16;;;7.79
48003;BMP280;33768;48.578;11.574;2024-02-23T11:52:32;94873.09;;;7.76
48003;BMP280;33768;48.578;11.574;2024-02-23T11:55:37;94871.63;;;7.82
48003;BMP280;33768;48.578;11.574;2024-02-23T11:58:42;94872.38;;;7.90
48003;BMP280;33768;48.578;11.574;2024-02-23T12:01:46;94872.19;;;8.03
48003;BMP280;33768;48.578;11.574;2024-02-23T12:04:54;94878.69;;;8.00
48003;BMP280;33768;48.578;11.574;2024-02-23T12:07:58;94862.75;;;7.75
48003;BMP280;33768;48.578;11.574;2024-02-23T12:11:02;94867.66;;;7.69
48003;BMP280;33768;48.578;11.574;2024-02-23T12:14:06;94860.25;;;7.77
48003;BMP280;33768;48.578;11.574;2024-02-23T12:17:12;94857.88;;;7.88
48003;BMP280;33768;48.578;11.574;2024-02-23T12:20:16;94850.09;;;7.92
48003;BMP280;33768;48.578;11.574;2024-02-23T12:23:21;94851.72;;;7.87
48003;BMP280;33768;48.578;11.574;2024-02-23T12:26:25;94855.72;;;7.79
48003;BMP280;33768;48.578;11.574;2024-02-23T12:29:29;94842.84;;;7.72
48003;BMP280;33768;48.578;11.574;2024-02-23T12:32:33;94843.94;;;7.69
48003;BMP280;33768;48.578;11.574;2024-02-23T12:35:39;94852.81;;;7.62
48003;BMP280;33768;48.578;11.574;2024-02-23T12:38:43;94871.25;;;7.49
48003;BMP280;33768;48.578;11.574;2024-02-23T12:41:47;94864.03;;;7.51
48003;BMP280;33768;48.578;11.574;2024-02-23T12:44:54;94856.59;;;7.52
48003;BMP280;33768;48.578;11.574;2024-02-23T12:47:58;94856.41;;;7.50
48003;BMP280;33768;48.578;11.574;2024-02-23T12:51:03;94850.06;;;7.55
48003;BMP280;33768;48.578;11.574;2024-02-23T12:54:08;94852.44;;;7.51
48003;BMP280;33768;48.578;11.574;2024-02-23T12:57:12;94854.25;;;7.48
48003;BMP280;33768;48.578;11.574;2024-02-23T13:00:16;94864.56;;;7.50
48003;BMP280;33768;48.578;11.574;2024-02-23T13:03:21;94860.22;;;7.54
48003;BMP280;33768;48.578;11.574;2024-02-23T13:06:25;94860.75;;;7.53
48003;BMP280;33768;48.578;11.574;2024-02-23T13:09:29;94859.50;;;7.54
48003;BMP280;33768;48.578;11.574;2024-02-23T13:12:33;94856.22;;;7.63
48003;BMP280;33768;48.578;11.574;2024-02-23T13:15:55;94851.53;;;7.56
48003;BMP280;33768;48.578;11.574;2024-02-23T13:19:01;94828.19;;;7.60
48003;BMP280;33768;48.578;11.574;2024-02-23T13:22:07;94820.59;;;7.59
48003;BMP280;33768;48.578;11.574;2024-02-23T13:25:10;94814.06;;;7.62
48003;BMP280;33768;48.578;11.574;2024-02-23T13:28:15;94805.75;;;7.75
48003;BMP280;33768;48.578;11.574;2024-02-23T13:31:20;94812.06;;;7.77
48003;BMP280;33768;48.578;11.574;2024-02-23T13:34:23;94814.06;;;7.91
48003;BMP280;33768;48.578;11.574;2024-02-23T13:37:27;94834.53;;;7.92
48003;BMP280;33768;48.578;11.574;2024-02-23T13:40:32;94846.47;;;7.89
48003;BMP280;33768;48.578;11.574;2024-02-23T13:43:36;94851.53;;;7.71
48003;BMP280;33768;48.578;11.574;2024-02-23T13:46:40;94848.97;;;7.43
48003;BMP280;33768;48.578;11.574;2024-02-23T13:49:44;94853.84;;;7.37
48003;BMP280;33768;48.578;11.574;2024-02-23T13:52:50;94851.31;;;7.32
48003;BMP280;33768;48.578;11.574;2024-02-23T13:55:54;94825.25;;;7.21
48003;BMP280;33768;48.578;11.574;2024-02-23T13:58:58;94831.56;;;7.17
48003;BMP280;33768;48.578;11.574;2024-02-23T14:02:03;94816.91;;;7.19
48003;BMP280;33768;48.578;11.574;2024-02-23T14:05:08;94794.50;;;7.26
48003;BMP280;33768;48.578;11.574;2024-02-23T14:08:12;94794.31;;;7.32
48003;BMP280;33768;48.578;11.574;2024-02-23T14:11:16;94812.97;;;7.43
48003;BMP280;33768;48.578;11.574;2024-02-23T14:14:20;94804.47;;;7.46
48003;BMP280;33768;48.578;11.574;2024-02-23T14:17:25;94796.88;;;7.52
48003;BMP280;33768;48.578;11.574;2024-02-23T14:20:29;94788.53;;;7.50
48003;BMP280;33768;48.578;11.574;2024-02-23T14:23:33;94783.66;;;7.41
48003;BMP280;33768;48.578;11.574;2024-02-23T14:26:39;94785.28;;;7.37
48003;BMP280;33768;48.578;11.574;2024-02-23T14:29:46;94790.50;;;7.20
48003;BMP280;33768;48.578;11.574;2024-02-23T14:32:50;94807.31;;;7.04
48003;BMP280;33768;48.578;11.574;2024-02-23T14:35:54;94793.31;;;6.85
48003;BMP280;33768;48.578;11.574;2024-02-23T14:38:59;94802.19;;;6.78
48003;BMP280;33768;48.578;11.574;2024-02-23T14:42:03;94805.78;;;6.73
48003;BMP280;33768;48.578;11.574;2024-02-23T14:45:07;94809.94;;;6.74
48003;BMP280;33768;48.578;11.574;2024-02-23T14:48:13;94811.38;;;6.75
48003;BMP280;33768;48.578;11.574;2024-02-23T14:51:17;94834.13;;;6.72
48003;BMP280;33768;48.578;11.574;2024-02-23T14:54:21;94841.91;;;6.68
48003;BMP280;33768;48.578;11.574;2024-02-23T14:57:25;94832.50;;;6.69
48003;BMP280;33768;48.578;11.574;2024-02-23T15:00:29;94846.97;;;6.72
48003;BMP280;33768;48.578;11.574;2024-02-23T15:03:34;94841.03;;;6.73
48003;BMP280;33768;48.578;11.574;2024-02-23T15:06:38;94855.28;;;6.74
48003;BMP280;33768;48.578;11.574;2024-02-23T15:09:42;94850.41;;;6.72
48003;BMP280;33768;48.578;11.574;2024-02-23T15:12:46;94831.41;;;6.72
48003;BMP280;33768;48.578;11.574;2024-02-23T15:15:51;94820.56;;;6.72
48003;BMP280;33768;48.578;11.574;2024-02-23T15:18:55;94800.69;;;6.70
48003;BMP280;33768;48.578;11.574;2024-02-23T15:22:00;94796.91;;;6.65
48003;BMP280;33768;48.578;11.574;2024-02-23T15:25:05;94791.47;;;6.65
48003;BMP280;33768;48.578;11.574;2024-02-23T15:28:10;94790.56;;;6.63
48003;BMP280;33768;48.578;11.574;2024-02-23T15:31:14;94791.59;;;6.53
48003;BMP280;33768;48.578;11.574;2024-02-23T15:34:18;94811.63;;;6.50
48003;BMP280;33768;48.578;11.574;2024-02-23T15:37:22;94820.06;;;6.39
48003;BMP280;33768;48.578;11.574;2024-02-23T15:44:24;94824.69;;;6.23
48003;BMP280;33768;48.578;11.574;2024-02-23T15:47:28;94806.19;;;6.07
48003;BMP280;33768;48.578;11.574;2024-02-23T15:50:32;94790.78;;;5.95
48003;BMP280;33768;48.578;11.574;2024-02-23T15:53:37;94788.59;;;5.93
48003;BMP280;33768;48.578;11.574;2024-02-23T15:56:42;94801.34;;;5.86
48003;BMP280;33768;48.578;11.574;2024-02-23T15:59:46;94802.63;;;5.85
48003;BMP280;33768;48.578;11.574;2024-02-23T16:02:50;94791.59;;;5.83
48003;BMP280;33768;48.578;11.574;2024-02-23T16:05:55;94809.03;;;5.74
48003;BMP280;33768;48.578;11.574;2024-02-23T16:09:00;94832.56;;;5.66
48003;BMP280;33768;48.578;11.574;2024-02-23T16:12:05;94827.09;;;5.59
48003;BMP280;33768;48.578;11.574;2024-02-23T16:15:09;94829.63;;;5.57
48003;BMP280;33768;48.578;11.574;2024-02-23T16:18:13;94818.41;;;5.53
48003;BMP280;33768;48.578;11.574;2024-02-23T16:21:17;94809.16;;;5.49
48003;BMP280;33768;48.578;11.574;2024-02-23T16:24:22;94813.47;;;5.44
48003;BMP280;33768;48.578;11.574;2024-02-23T16:27:26;94791.22;;;5.38
48003;BMP280;33768;48.578;11.574;2024-02-23T16:30:31;94803.25;;;5.30
48003;BMP280;33768;48.578;11.574;2024-02-23T16:33:36;94796.69;;;5.26
48003;BMP280;33768;48.578;11.574;2024-02-23T16:36:40;94790.91;;;5.22
48003;BMP280;33768;48.578;11.574;2024-02-23T16:39:44;94788.16;;;5.14
48003;BMP280;33768;48.578;11.574;2024-02-23T16:42:49;94782.72;;;5.14
48003;BMP280;33768;48.578;11.574;2024-02-23T16:45:53;94800.31;;;5.08
48003;BMP280;33768;48.578;11.574;2024-02-23T16:48:58;94799.94;;;5.04
48003;BMP280;33768;48.578;11.574;2024-02-23T16:52:02;94800.78;;;4.99
48003;BMP280;33768;48.578;11.574;2024-02-23T16:55:07;94809.94;;;4.96
48003;BMP280;33768;48.578;11.574;2024-02-23T16:58:11;94830.84;;;4.96
48003;BMP280;33768;48.578;11.574;2024-02-23T17:01:16;94819.94;;;4.88
48003;BMP280;33768;48.578;11.574;2024-02-23T17:04:20;94814.34;;;4.86
48003;BMP280;33768;48.578;11.574;2024-02-23T17:07:24;94807.09;;;4.81
48003;BMP280;33768;48.578;11.574;2024-02-23T17:10:28;94777.88;;;4.80
48003;BMP280;33768;48.578;11.574;2024-02-23T17:13:33;94788.50;;;4.78
48003;BMP280;33768;48.578;11.574;2024-02-23T17:16:37;94789.88;;;4.71
48003;BMP280;33768;48.578;11.574;2024-02-23T17:19:41;94799.53;;;4.67
48003;BMP280;33768;48.578;11.574;2024-02-23T17:22:46;94811.72;;;4.61
48003;BMP280;33768;48.578;11.574;2024-02-23T17:25:50;94812.38;;;4.54
48003;BMP280;33768;48.578;11.574;2024-02-23T17:28:59;94834.38;;;4.58
48003;BMP280;33768;48.578;11.574;2024-02-23T17:32:03;94841.75;;;4.57
48003;BMP280;33768;48.578;11.574;2024-02-23T17:35:07;94860.47;;;4.55
48003;BMP280;33768;48.578;11.574;2024-02-23T17:38:15;94842.72;;;4.47
48003;BMP280;33768;48.578;11.574;2024-02-23T17:41:22;94834.91;;;4.43
48003;BMP280;33768;48.578;11.574;2024-02-23T17:44:26;94832.22;;;4.43
48003;BMP280;33768;48.578;11.574;2024-02-23T17:47:31;94804.69;;;4.45
48003;BMP280;33768;48.578;11.574;2024-02-23T17:50:36;94794.34;;;4.36
48003;BMP280;33768;48.578;11.574;2024-02-23T17:53:41;94787.25;;;4.33